sensor_id;sensor_type;location;lat;lon;timestamp;pressure;altitude;pressure_sealevel;temperature;humidity
38852;BME280;24605;50.092;9.182;2023-01-28T00:01:37;98646.72;;;0.46;100.00
38852;BME280;24605;50.092;9.182;2023-01-28T00:04:04;98597.31;;;0.07;100.00
38852;BME280;24605;50.092;9.182;2023-01-28T00:06:31;98642.47;;;0.45;100.00
38852;BME280;24605;50.092;9.182;2023-01-28T00:08:58;98612.44;;;0.13;100.00
38852;BME280;24605;50.092;9.182;2023-01-28T00:11:26;98636.34;;;0.31;100.00
38852;BME280;24605;50.092;9.182;2023-01-28T00:13:53;98635.44;;;0.33;100.00
38852;BME280;24605;50.092;9.182;2023-01-28T00:16:20;98638.09;;;0.31;100.00
38852;BME280;24605;50.092;9.182;2023-01-28T00:18:47;98556.19;;;-0.10;100.00
38852;BME280;24605;50.092;9.182;2023-01-28T00:21:14;98633.19;;;0.26;100.00
38852;BME280;24605;50.092;9.182;2023-01-28T00:23:42;98604.69;;;0.13;100.00
38852;BME280;24605;50.092;9.182;2023-01-28T00:26:11;98618.78;;;0.38;100.00
38852;BME280;24605;50.092;9.182;2023-01-28T00:28:40;98631.16;;;0.47;100.00
38852;BME280;24605;50.092;9.182;2023-01-28T00:31:08;98618.09;;;0.51;100.00
38852;BME280;24605;50.092;9.182;2023-01-28T00:33:35;98637.28;;;0.61;100.00
38852;BME280;24605;50.092;9.182;2023-01-28T00:36:03;98632.84;;;0.63;100.00
38852;BME280;24605;50.092;9.182;2023-01-28T00:38:33;98624.53;;;0.58;100.00
38852;BME280;24605;50.092;9.182;2023-01-28T00:41:06;98635.63;;;0.60;100.00
38852;BME280;24605;50.092;9.182;2023-01-28T00:43:33;98601.47;;;0.40;100.00
38852;BME280;24605;50.092;9.182;2023-01-28T00:46:01;98613.09;;;0.47;100.00
38852;BME280;24605;50.092;9.182;2023-01-28T00:48:28;98621.97;;;0.72;100.00
38852;BME280;24605;50.092;9.182;2023-01-28T00:50:55;98631.28;;;0.60;100.00
38852;BME280;24605;50.092;9.182;2023-01-28T00:53:22;98614.09;;;0.45;100.00
38852;BME280;24605;50.092;9.182;2023-01-28T00:55:48;98613.66;;;0.53;100.00
38852;BME280;24605;50.092;9.182;2023-01-28T00:58:15;98559.88;;;0.16;100.00
38852;BME280;24605;50.092;9.182;2023-01-28T01:00:42;98647.44;;;0.78;100.00
38852;BME280;24605;50.092;9.182;2023-01-28T01:03:10;98636.38;;;0.76;100.00
38852;BME280;24605;50.092;9.182;2023-01-28T01:05:37;98620.19;;;0.58;100.00
38852;BME280;24605;50.092;9.182;2023-01-28T01:08:04;98651.13;;;0.74;100.00
38852;BME280;24605;50.092;9.182;2023-01-28T01:10:31;98646.84;;;0.59;100.00
38852;BME280;24605;50.092;9.182;2023-01-28T01:12:59;98622.75;;;0.44;100.00
38852;BME280;24605;50.092;9.182;2023-01-28T01:15:25;98647.00;;;0.56;100.00
38852;BME280;24605;50.092;9.182;2023-01-28T01:17:52;98640.66;;;0.47;100.00
38852;BME280;24605;50.092;9.182;2023-01-28T01:20:22;98628.72;;;0.44;100.00
38852;BME280;24605;50.092;9.182;2023-01-28T01:22:50;98607.41;;;0.26;100.00
38852;BME280;24605;50.092;9.182;2023-01-28T01:25:17;98640.00;;;0.43;100.00
38852;BME280;24605;50.092;9.182;2023-01-28T01:27:48;98621.94;;;0.43;100.00
38852;BME280;24605;50.092;9.182;2023-01-28T01:30:16;98630.84;;;0.38;100.00
38852;BME280;24605;50.092;9.182;2023-01-28T01:32:43;98637.97;;;0.49;100.00
38852;BME280;24605;50.092;9.182;2023-01-28T01:35:10;98651.34;;;0.55;100.00
38852;BME280;24605;50.092;9.182;2023-01-28T01:37:38;98656.03;;;0.49;100.00
38852;BME280;24605;50.092;9.182;2023-01-28T01:40:06;98640.44;;;0.50;100.00
38852;BME280;24605;50.092;9.182;2023-01-28T01:42:34;98601.97;;;0.17;100.00
38852;BME280;24605;50.092;9.182;2023-01-28T01:45:02;98646.47;;;0.51;100.00
38852;BME280;24605;50.092;9.182;2023-01-28T01:47:35;98644.03;;;0.47;100.00
38852;BME280;24605;50.092;9.182;2023-01-28T01:50:10;98608.84;;;0.16;100.00
38852;BME280;24605;50.092;9.182;2023-01-28T01:52:41;98660.28;;;0.50;100.00
38852;BME280;24605;50.092;9.182;2023-01-28T01:55:11;98614.53;;;0.37;100.00
38852;BME280;24605;50.092;9.182;2023-01-28T01:57:41;98656.97;;;0.62;100.00
38852;BME280;24605;50.092;9.182;2023-01-28T02:00:10;98644.78;;;0.50;100.00
38852;BME280;24605;50.092;9.182;2023-01-28T02:02:39;98620.97;;;0.30;100.00
38852;BME280;24605;50.092;9.182;2023-01-28T02:05:08;98661.09;;;0.50;100.00
38852;BME280;24605;50.092;9.182;2023-01-28T02:07:37;98575.41;;;-0.16;100.00
38852;BME280;24605;50.092;9.182;2023-01-28T02:10:07;98651.66;;;0.19;100.00
38852;BME280;24605;50.092;9.182;2023-01-28T02:12:36;98660.00;;;0.24;100.00
38852;BME280;24605;50.092;9.182;2023-01-28T02:15:08;98658.50;;;0.20;100.00
38852;BME280;24605;50.092;9.182;2023-01-28T02:17:35;98645.59;;;0.20;100.00
38852;BME280;24605;50.092;9.182;2023-01-28T02:20:05;98606.41;;;-0.18;100.00
38852;BME280;24605;50.092;9.182;2023-01-28T02:23:06;98656.59;;;0.07;100.00
38852;BME280;24605;50.092;9.182;2023-01-28T02:28:51;98650.47;;;-0.22;100.00
38852;BME280;24605;50.092;9.182;2023-01-28T02:31:23;98655.53;;;-0.21;100.00
38852;BME280;24605;50.092;9.182;2023-01-28T02:33:57;98670.22;;;0.09;100.00
38852;BME280;24605;50.092;9.182;2023-01-28T02:36:31;98659.44;;;0.03;100.00
38852;BME280;24605;50.092;9.182;2023-01-28T02:39:07;98664.25;;;0.25;100.00
38852;BME280;24605;50.092;9.182;2023-01-28T02:41:40;98668.44;;;0.42;100.00
38852;BME280;24605;50.092;9.182;2023-01-28T02:44:10;98662.31;;;0.28;100.00
38852;BME280;24605;50.092;9.182;2023-01-28T02:46:37;98680.56;;;0.40;100.00
38852;BME280;24605;50.092;9.182;2023-01-28T02:49:26;98658.88;;;0.28;100.00
38852;BME280;24605;50.092;9.182;2023-01-28T02:52:08;98678.56;;;0.61;100.00
38852;BME280;24605;50.092;9.182;2023-01-28T02:54:42;98665.81;;;0.58;100.00
38852;BME280;24605;50.092;9.182;2023-01-28T02:57:18;98678.50;;;0.46;100.00
38852;BME280;24605;50.092;9.182;2023-01-28T02:59:57;98654.13;;;0.36;100.00
38852;BME280;24605;50.092;9.182;2023-01-28T03:02:30;98651.94;;;0.44;100.00
38852;BME280;24605;50.092;9.182;2023-01-28T03:05:03;98678.59;;;0.29;100.00
38852;BME280;24605;50.092;9.182;2023-01-28T03:07:34;98681.94;;;0.31;100.00
38852;BME280;24605;50.092;9.182;2023-01-28T03:10:06;98678.78;;;0.26;100.00
38852;BME280;24605;50.092;9.182;2023-01-28T03:12:34;98659.00;;;0.10;100.00
38852;BME280;24605;50.092;9.182;2023-01-28T03:15:23;98635.00;;;-0.06;100.00
38852;BME280;24605;50.092;9.182;2023-01-28T03:18:10;98680.53;;;0.25;100.00
38852;BME280;24605;50.092;9.182;2023-01-28T03:21:00;98683.44;;;0.35;100.00
38852;BME280;24605;50.092;9.182;2023-01-28T03:23:49;98686.19;;;0.32;100.00
38852;BME280;24605;50.092;9.182;2023-01-28T03:26:41;98702.31;;;0.20;100.00
38852;BME280;24605;50.092;9.182;2023-01-28T03:29:29;98691.84;;;0.23;100.00
38852;BME280;24605;50.092;9.182;2023-01-28T03:32:16;98701.81;;;0.29;100.00
38852;BME280;24605;50.092;9.182;2023-01-28T03:35:03;98676.63;;;0.02;100.00
38852;BME280;24605;50.092;9.182;2023-01-28T03:37:49;98679.81;;;0.07;100.00
38852;BME280;24605;50.092;9.182;2023-01-28T03:40:17;98702.00;;;0.26;100.00
38852;BME280;24605;50.092;9.182;2023-01-28T03:42:44;98689.63;;;0.17;100.00
38852;BME280;24605;50.092;9.182;2023-01-28T03:45:11;98666.81;;;-0.07;100.00
38852;BME280;24605;50.092;9.182;2023-01-28T03:47:40;98707.16;;;0.10;100.00
38852;BME280;24605;50.092;9.182;2023-01-28T03:50:09;98703.97;;;0.21;100.00
38852;BME280;24605;50.092;9.182;2023-01-28T03:52:36;98713.13;;;0.10;100.00
38852;BME280;24605;50.092;9.182;2023-01-28T03:55:03;98667.09;;;-0.28;100.00
38852;BME280;24605;50.092;9.182;2023-01-28T03:57:37;98719.88;;;-0.03;100.00
38852;BME280;24605;50.092;9.182;2023-01-28T04:00:05;98695.78;;;-0.02;100.00
38852;BME280;24605;50.092;9.182;2023-01-28T04:02:34;98679.47;;;-0.35;100.00
38852;BME280;24605;50.092;9.182;2023-01-28T04:05:07;98715.97;;;-0.10;100.00
38852;BME280;24605;50.092;9.182;2023-01-28T04:07:37;98715.72;;;-0.22;100.00
38852;BME280;24605;50.092;9.182;2023-01-28T04:10:05;98661.81;;;-0.58;100.00
38852;BME280;24605;50.092;9.182;2023-01-28T04:12:32;98679.28;;;-0.48;100.00
38852;BME280;24605;50.092;9.182;2023-01-28T04:15:03;98648.44;;;-0.65;100.00
38852;BME280;24605;50.092;9.182;2023-01-28T04:17:40;98710.88;;;-0.28;100.00
38852;BME280;24605;50.092;9.182;2023-01-28T04:20:11;98726.34;;;-0.28;100.00
38852;BME280;24605;50.092;9.182;2023-01-28T04:22:38;98723.09;;;-0.32;100.00
38852;BME280;24605;50.092;9.182;2023-01-28T04:25:06;98695.41;;;-0.44;100.00
38852;BME280;24605;50.092;9.182;2023-01-28T04:27:33;98701.66;;;-0.32;100.00
38852;BME280;24605;50.092;9.182;2023-01-28T04:29:59;98712.22;;;-0.21;100.00
38852;BME280;24605;50.092;9.182;2023-01-28T04:32:26;98702.06;;;-0.40;100.00
38852;BME280;24605;50.092;9.182;2023-01-28T04:34:53;98694.72;;;-0.48;100.00
38852;BME280;24605;50.092;9.182;2023-01-28T04:37:21;98719.09;;;-0.37;100.00
38852;BME280;24605;50.092;9.182;2023-01-28T04:39:48;98716.09;;;-0.45;100.00
38852;BME280;24605;50.092;9.182;2023-01-28T04:42:14;98719.81;;;-0.35;100.00
38852;BME280;24605;50.092;9.182;2023-01-28T04:44:41;98690.25;;;-0.44;100.00
38852;BME280;24605;50.092;9.182;2023-01-28T04:47:08;98724.31;;;-0.39;100.00
38852;BME280;24605;50.092;9.182;2023-01-28T04:49:34;98659.34;;;-0.77;100.00
38852;BME280;24605;50.092;9.182;2023-01-28T04:52:01;98718.34;;;-0.39;100.00
38852;BME280;24605;50.092;9.182;2023-01-28T04:54:29;98721.59;;;-0.36;100.00
38852;BME280;24605;50.092;9.182;2023-01-28T04:56:55;98723.34;;;-0.36;100.00
38852;BME280;24605;50.092;9.182;2023-01-28T04:59:22;98714.34;;;-0.45;100.00
38852;BME280;24605;50.092;9.182;2023-01-28T05:01:49;98723.34;;;-0.36;100.00
38852;BME280;24605;50.092;9.182;2023-01-28T05:04:15;98737.63;;;-0.30;100.00
38852;BME280;24605;50.092;9.182;2023-01-28T05:06:42;98728.97;;;-0.29;100.00
38852;BME280;24605;50.092;9.182;2023-01-28T05:09:09;98728.88;;;-0.10;100.00
38852;BME280;24605;50.092;9.182;2023-01-28T05:11:36;98726.44;;;-0.13;100.00
38852;BME280;24605;50.092;9.182;2023-01-28T05:14:03;98722.53;;;-0.21;100.00
38852;BME280;24605;50.092;9.182;2023-01-28T05:16:30;98715.38;;;-0.16;100.00
38852;BME280;24605;50.092;9.182;2023-01-28T05:18:58;98715.94;;;-0.26;100.00
38852;BME280;24605;50.092;9.182;2023-01-28T05:21:25;98727.94;;;-0.25;100.00
38852;BME280;24605;50.092;9.182;2023-01-28T05:23:52;98721.34;;;-0.31;100.00
38852;BME280;24605;50.092;9.182;2023-01-28T05:26:19;98701.88;;;-0.37;100.00
38852;BME280;24605;50.092;9.182;2023-01-28T05:28:47;98727.06;;;-0.26;100.00
38852;BME280;24605;50.092;9.182;2023-01-28T05:31:13;98741.81;;;-0.12;100.00
38852;BME280;24605;50.092;9.182;2023-01-28T05:33:40;98726.03;;;-0.06;100.00
38852;BME280;24605;50.092;9.182;2023-01-28T05:36:06;98743.59;;;0.04;100.00
38852;BME280;24605;50.092;9.182;2023-01-28T05:38:33;98736.41;;;-0.07;100.00
38852;BME280;24605;50.092;9.182;2023-01-28T05:40:59;98747.31;;;-0.02;100.00
38852;BME280;24605;50.092;9.182;2023-01-28T05:43:26;98736.34;;;-0.06;100.00
38852;BME280;24605;50.092;9.182;2023-01-28T05:45:54;98744.31;;;-0.10;100.00
38852;BME280;24605;50.092;9.182;2023-01-28T05:48:21;98752.16;;;0.04;100.00
38852;BME280;24605;50.092;9.182;2023-01-28T05:50:48;98730.09;;;-0.02;100.00
38852;BME280;24605;50.092;9.182;2023-01-28T05:53:14;98718.63;;;-0.12;100.00
38852;BME280;24605;50.092;9.182;2023-01-28T05:55:41;98751.38;;;-0.14;100.00
38852;BME280;24605;50.092;9.182;2023-01-28T05:58:08;98773.66;;;0.03;100.00
38852;BME280;24605;50.092;9.182;2023-01-28T06:00:34;98776.25;;;0.03;100.00
38852;BME280;24605;50.092;9.182;2023-01-28T06:03:02;98750.44;;;-0.13;100.00
38852;BME280;24605;50.092;9.182;2023-01-28T06:05:29;98758.19;;;-0.13;100.00
38852;BME280;24605;50.092;9.182;2023-01-28T06:07:56;98751.94;;;-0.25;100.00
38852;BME280;24605;50.092;9.182;2023-01-28T06:10:22;98733.72;;;-0.38;100.00
38852;BME280;24605;50.092;9.182;2023-01-28T06:12:49;98766.47;;;-0.24;100.00
38852;BME280;24605;50.092;9.182;2023-01-28T06:15:16;98766.47;;;-0.24;100.00
38852;BME280;24605;50.092;9.182;2023-01-28T06:17:42;98760.66;;;-0.27;100.00
38852;BME280;24605;50.092;9.182;2023-01-28T06:20:11;98780.47;;;-0.12;100.00
38852;BME280;24605;50.092;9.182;2023-01-28T06:22:37;98798.13;;;-0.04;100.00
38852;BME280;24605;50.092;9.182;2023-01-28T06:25:05;98804.41;;;-0.10;100.00
38852;BME280;24605;50.092;9.182;2023-01-28T06:27:32;98806.00;;;-0.07;100.00
38852;BME280;24605;50.092;9.182;2023-01-28T06:29:58;98814.50;;;-0.05;100.00
38852;BME280;24605;50.092;9.182;2023-01-28T06:32:26;98793.91;;;0.11;100.00
38852;BME280;24605;50.092;9.182;2023-01-28T06:34:52;98790.47;;;-0.06;100.00
38852;BME280;24605;50.092;9.182;2023-01-28T06:37:20;98768.72;;;-0.18;100.00
38852;BME280;24605;50.092;9.182;2023-01-28T06:39:47;98812.72;;;0.13;100.00
38852;BME280;24605;50.092;9.182;2023-01-28T06:42:14;98773.88;;;-0.18;100.00
38852;BME280;24605;50.092;9.182;2023-01-28T06:44:40;98756.16;;;-0.40;100.00
38852;BME280;24605;50.092;9.182;2023-01-28T06:47:07;98823.44;;;-0.12;100.00
38852;BME280;24605;50.092;9.182;2023-01-28T06:49:35;98795.44;;;-0.19;100.00
38852;BME280;24605;50.092;9.182;2023-01-28T06:52:02;98816.47;;;-0.10;100.00
38852;BME280;24605;50.092;9.182;2023-01-28T06:54:31;98810.34;;;-0.08;100.00
38852;BME280;24605;50.092;9.182;2023-01-28T06:56:58;98827.47;;;0.09;100.00
38852;BME280;24605;50.092;9.182;2023-01-28T06:59:25;98828.13;;;-0.03;100.00
38852;BME280;24605;50.092;9.182;2023-01-28T07:01:51;98829.44;;;-0.12;100.00
38852;BME280;24605;50.092;9.182;2023-01-28T07:04:18;98807.47;;;-0.19;100.00
38852;BME280;24605;50.092;9.182;2023-01-28T07:06:44;98822.34;;;-0.24;100.00
38852;BME280;24605;50.092;9.182;2023-01-28T07:09:11;98771.25;;;-0.50;100.00
38852;BME280;24605;50.092;9.182;2023-01-28T07:11:39;98818.09;;;-0.25;100.00
38852;BME280;24605;50.092;9.182;2023-01-28T07:14:06;98830.03;;;-0.07;100.00
38852;BME280;24605;50.092;9.182;2023-01-28T07:16:33;98834.44;;;-0.09;100.00
38852;BME280;24605;50.092;9.182;2023-01-28T07:19:00;98826.31;;;-0.01;100.00
38852;BME280;24605;50.092;9.182;2023-01-28T07:21:27;98727.38;;;-0.82;100.00
38852;BME280;24605;50.092;9.182;2023-01-28T07:23:55;98836.56;;;-0.17;100.00
38852;BME280;24605;50.092;9.182;2023-01-28T07:26:22;98822.47;;;-0.10;100.00
38852;BME280;24605;50.092;9.182;2023-01-28T07:28:51;98827.97;;;0.00;100.00
38852;BME280;24605;50.092;9.182;2023-01-28T07:31:19;98832.63;;;0.09;100.00
38852;BME280;24605;50.092;9.182;2023-01-28T07:33:46;98832.97;;;0.03;100.00
38852;BME280;24605;50.092;9.182;2023-01-28T07:36:14;98750.63;;;-0.50;100.00
38852;BME280;24605;50.092;9.182;2023-01-28T07:38:41;98780.44;;;-0.28;100.00
38852;BME280;24605;50.092;9.182;2023-01-28T07:41:08;98788.66;;;-0.37;100.00
38852;BME280;24605;50.092;9.182;2023-01-28T07:43:36;98809.97;;;-0.18;100.00
38852;BME280;24605;50.092;9.182;2023-01-28T07:46:04;98849.44;;;0.01;100.00
38852;BME280;24605;50.092;9.182;2023-01-28T07:48:31;98816.47;;;-0.10;100.00
38852;BME280;24605;50.092;9.182;2023-01-28T07:50:58;98866.78;;;-0.03;100.00
38852;BME280;24605;50.092;9.182;2023-01-28T07:53:26;98861.22;;;0.05;100.00
38852;BME280;24605;50.092;9.182;2023-01-28T07:55:57;98866.16;;;0.09;100.00
38852;BME280;24605;50.092;9.182;2023-01-28T07:58:24;98868.97;;;0.05;100.00
38852;BME280;24605;50.092;9.182;2023-01-28T08:00:55;98864.50;;;0.08;100.00
38852;BME280;24605;50.092;9.182;2023-01-28T08:03:24;98855.97;;;-0.10;100.00
38852;BME280;24605;50.092;9.182;2023-01-28T08:05:52;98873.44;;;0.01;100.00
38852;BME280;24605;50.092;9.182;2023-01-28T08:08:20;98881.03;;;0.04;100.00
38852;BME280;24605;50.092;9.182;2023-01-28T08:10:47;98868.47;;;-0.02;100.00
38852;BME280;24605;50.092;9.182;2023-01-28T08:13:15;98861.56;;;-0.02;100.00
38852;BME280;24605;50.092;9.182;2023-01-28T08:15:42;98876.09;;;-0.01;100.00
38852;BME280;24605;50.092;9.182;2023-01-28T08:18:11;98883.69;;;0.03;100.00
38852;BME280;24605;50.092;9.182;2023-01-28T08:20:40;98892.31;;;0.19;100.00
38852;BME280;24605;50.092;9.182;2023-01-28T08:23:08;98886.28;;;0.19;100.00
38852;BME280;24605;50.092;9.182;2023-01-28T08:25:37;98876.22;;;0.14;100.00
38852;BME280;24605;50.092;9.182;2023-01-28T08:28:05;98891.09;;;0.09;100.00
38852;BME280;24605;50.092;9.182;2023-01-28T08:30:32;98874.19;;;0.03;100.00
38852;BME280;24605;50.092;9.182;2023-01-28T08:33:00;98896.38;;;-0.10;100.00
38852;BME280;24605;50.092;9.182;2023-01-28T08:35:27;98890.78;;;0.15;100.00
38852;BME280;24605;50.092;9.182;2023-01-28T08:37:58;98889.31;;;0.27;100.00
38852;BME280;24605;50.092;9.182;2023-01-28T08:40:25;98892.38;;;0.18;100.00
38852;BME280;24605;50.092;9.182;2023-01-28T08:42:54;98892.69;;;0.11;100.00
38852;BME280;24605;50.092;9.182;2023-01-28T08:45:23;98909.28;;;0.06;100.00
38852;BME280;24605;50.092;9.182;2023-01-28T08:47:51;98902.13;;;-0.05;100.00
38852;BME280;24605;50.092;9.182;2023-01-28T08:50:20;98834.63;;;-0.29;100.00
38852;BME280;24605;50.092;9.182;2023-01-28T08:52:48;98891.16;;;0.25;100.00
38852;BME280;24605;50.092;9.182;2023-01-28T08:55:21;98888.66;;;0.06;100.00
38852;BME280;24605;50.092;9.182;2023-01-28T08:57:48;98882.38;;;0.11;100.00
38852;BME280;24605;50.092;9.182;2023-01-28T09:00:16;98794.34;;;-0.66;100.00
38852;BME280;24605;50.092;9.182;2023-01-28T09:02:43;98881.44;;;-0.21;100.00
38852;BME280;24605;50.092;9.182;2023-01-28T09:05:10;98859.47;;;-0.46;100.00
38852;BME280;24605;50.092;9.182;2023-01-28T09:07:37;98855.78;;;-0.40;100.00
38852;BME280;24605;50.092;9.182;2023-01-28T09:10:05;98907.72;;;-0.14;100.00
38852;BME280;24605;50.092;9.182;2023-01-28T09:12:34;98866.22;;;-0.61;100.00
38852;BME280;24605;50.092;9.182;2023-01-28T09:15:01;98888.25;;;-0.55;100.00
38852;BME280;24605;50.092;9.182;2023-01-28T09:17:28;98848.41;;;-0.66;100.00
38852;BME280;24605;50.092;9.182;2023-01-28T09:19:56;98830.78;;;-0.91;100.00
38852;BME280;24605;50.092;9.182;2023-01-28T09:22:23;98922.06;;;-0.26;100.00
38852;BME280;24605;50.092;9.182;2023-01-28T09:24:49;98930.38;;;-0.21;100.00
38852;BME280;24605;50.092;9.182;2023-01-28T09:27:16;98892.97;;;-0.46;100.00
38852;BME280;24605;50.092;9.182;2023-01-28T09:29:44;98939.44;;;-0.30;100.00
38852;BME280;24605;50.092;9.182;2023-01-28T09:32:10;98929.25;;;-0.33;100.00
38852;BME280;24605;50.092;9.182;2023-01-28T09:34:37;98930.78;;;-0.29;100.00
38852;BME280;24605;50.092;9.182;2023-01-28T09:37:03;98813.50;;;-1.06;100.00
38852;BME280;24605;50.092;9.182;2023-01-28T09:39:30;98891.00;;;-0.58;100.00
38852;BME280;24605;50.092;9.182;2023-01-28T09:42:07;98944.88;;;-0.36;100.00
38852;BME280;24605;50.092;9.182;2023-01-28T09:44:49;98942.44;;;-0.22;100.00
38852;BME280;24605;50.092;9.182;2023-01-28T09:47:23;98945.72;;;-0.18;100.00
38852;BME280;24605;50.092;9.182;2023-01-28T09:49:52;98944.56;;;-0.12;100.00
38852;BME280;24605;50.092;9.182;2023-01-28T09:52:22;98861.81;;;-0.76;100.00
38852;BME280;24605;50.092;9.182;2023-01-28T09:54:54;98936.41;;;-0.21;100.00
38852;BME280;24605;50.092;9.182;2023-01-28T09:57:25;98949.06;;;-0.34;100.00
38852;BME280;24605;50.092;9.182;2023-01-28T09:59:56;98960.34;;;-0.36;100.00
38852;BME280;24605;50.092;9.182;2023-01-28T10:02:33;98937.59;;;-0.45;100.00
38852;BME280;24605;50.092;9.182;2023-01-28T10:05:15;98956.47;;;-0.27;100.00
38852;BME280;24605;50.092;9.182;2023-01-28T10:07:50;98863.94;;;-0.67;100.00
38852;BME280;24605;50.092;9.182;2023-01-28T10:10:25;98943.13;;;-0.18;100.00
38852;BME280;24605;50.092;9.182;2023-01-28T10:13:10;98954.44;;;-0.03;100.00
38852;BME280;24605;50.092;9.182;2023-01-28T10:18:43;98931.91;;;-0.17;100.00
38852;BME280;24605;50.092;9.182;2023-01-28T10:21:16;98946.25;;;-0.11;100.00
38852;BME280;24605;50.092;9.182;2023-01-28T10:23:49;98963.22;;;-0.25;100.00
38852;BME280;24605;50.092;9.182;2023-01-28T10:26:21;98954.25;;;-0.18;100.00
38852;BME280;24605;50.092;9.182;2023-01-28T10:28:52;98955.31;;;-0.39;100.00
38852;BME280;24605;50.092;9.182;2023-01-28T10:31:22;98895.53;;;-0.64;100.00
38852;BME280;24605;50.092;9.182;2023-01-28T10:33:49;98960.16;;;-0.33;100.00
38852;BME280;24605;50.092;9.182;2023-01-28T10:36:16;98966.41;;;-0.20;100.00
38852;BME280;24605;50.092;9.182;2023-01-28T10:38:43;98956.31;;;-0.42;100.00
38852;BME280;24605;50.092;9.182;2023-01-28T10:41:20;98971.09;;;-0.28;100.00
38852;BME280;24605;50.092;9.182;2023-01-28T10:43:48;98946.03;;;-0.61;100.00
38852;BME280;24605;50.092;9.182;2023-01-28T10:46:18;98968.19;;;-0.57;100.00
38852;BME280;24605;50.092;9.182;2023-01-28T10:48:53;98904.22;;;-0.84;100.00
38852;BME280;24605;50.092;9.182;2023-01-28T10:51:29;98920.91;;;-0.73;100.00
38852;BME280;24605;50.092;9.182;2023-01-28T10:53:56;98859.53;;;-1.00;100.00
38852;BME280;24605;50.092;9.182;2023-01-28T10:56:25;98934.84;;;-0.42;100.00
38852;BME280;24605;50.092;9.182;2023-01-28T10:58:59;98978.88;;;-0.29;100.00
38852;BME280;24605;50.092;9.182;2023-01-28T11:01:37;98936.69;;;-0.62;100.00
38852;BME280;24605;50.092;9.182;2023-01-28T11:04:14;98972.47;;;-0.38;100.00
38852;BME280;24605;50.092;9.182;2023-01-28T11:06:51;98888.16;;;-0.89;100.00
38852;BME280;24605;50.092;9.182;2023-01-28T11:09:21;98982.69;;;-0.19;100.00
38852;BME280;24605;50.092;9.182;2023-01-28T11:11:47;98983.81;;;-0.25;100.00
38852;BME280;24605;50.092;9.182;2023-01-28T11:14:19;98874.59;;;-0.75;100.00
38852;BME280;24605;50.092;9.182;2023-01-28T11:16:46;98971.03;;;0.09;100.00
38852;BME280;24605;50.092;9.182;2023-01-28T11:19:14;98965.19;;;0.05;100.00
38852;BME280;24605;50.092;9.182;2023-01-28T11:21:47;98954.34;;;-0.02;100.00
38852;BME280;24605;50.092;9.182;2023-01-28T11:24:17;98965.06;;;-0.09;100.00
38852;BME280;24605;50.092;9.182;2023-01-28T11:26:48;98947.69;;;-0.23;100.00
38852;BME280;24605;50.092;9.182;2023-01-28T11:29:21;98980.44;;;-0.08;100.00
38852;BME280;24605;50.092;9.182;2023-01-28T11:31:49;98969.50;;;0.05;100.00
38852;BME280;24605;50.092;9.182;2023-01-28T11:34:18;98949.50;;;-0.08;100.00
38852;BME280;24605;50.092;9.182;2023-01-28T11:36:53;98877.91;;;-0.71;100.00
38852;BME280;24605;50.092;9.182;2023-01-28T11:39:21;98971.78;;;-0.42;100.00
38852;BME280;24605;50.092;9.182;2023-01-28T11:41:50;98959.03;;;-0.27;100.00
38852;BME280;24605;50.092;9.182;2023-01-28T11:44:19;98966.09;;;-0.31;100.00
38852;BME280;24605;50.092;9.182;2023-01-28T11:46:56;98907.41;;;-0.61;100.00
38852;BME280;24605;50.092;9.182;2023-01-28T11:49:37;98929.56;;;-0.22;100.00
38852;BME280;24605;50.092;9.182;2023-01-28T11:52:13;98964.97;;;-0.25;100.00
38852;BME280;24605;50.092;9.182;2023-01-28T11:54:54;98847.06;;;-0.55;100.00
38852;BME280;24605;50.092;9.182;2023-01-28T11:57:25;98947.44;;;0.17;100.00
38852;BME280;24605;50.092;9.182;2023-01-28T12:00:23;98944.41;;;0.42;100.00
38852;BME280;24605;50.092;9.182;2023-01-28T12:03:04;98937.53;;;0.42;100.00
38852;BME280;24605;50.092;9.182;2023-01-28T12:05:45;98936.19;;;0.35;100.00
38852;BME280;24605;50.092;9.182;2023-01-28T12:08:20;98823.84;;;-0.20;100.00
38852;BME280;24605;50.092;9.182;2023-01-28T12:10:52;98931.75;;;0.37;99.81
38852;BME280;24605;50.092;9.182;2023-01-28T12:13:32;98926.81;;;0.17;98.29
38852;BME280;24605;50.092;9.182;2023-01-28T12:16:26;98940.09;;;-0.09;99.09
38852;BME280;24605;50.092;9.182;2023-01-28T12:19:19;98927.81;;;-0.21;99.18
38852;BME280;24605;50.092;9.182;2023-01-28T12:22:03;98930.38;;;-0.04;99.24
38852;BME280;24605;50.092;9.182;2023-01-28T12:24:43;98870.91;;;-0.52;97.73
38852;BME280;24605;50.092;9.182;2023-01-28T12:27:21;98871.78;;;-0.51;98.08
38852;BME280;24605;50.092;9.182;2023-01-28T12:29:58;98941.69;;;-0.06;95.74
38852;BME280;24605;50.092;9.182;2023-01-28T12:32:39;98944.22;;;-0.05;94.83
38852;BME280;24605;50.092;9.182;2023-01-28T12:35:23;98935.94;;;0.06;95.38
38852;BME280;24605;50.092;9.182;2023-01-28T12:38:07;98943.44;;;0.11;96.64
38852;BME280;24605;50.092;9.182;2023-01-28T12:40:46;98932.22;;;-0.06;95.02
38852;BME280;24605;50.092;9.182;2023-01-28T12:43:19;98922.59;;;0.31;93.68
38852;BME280;24605;50.092;9.182;2023-01-28T12:45:50;98924.41;;;0.47;92.58
38852;BME280;24605;50.092;9.182;2023-01-28T12:48:26;98936.38;;;0.14;92.62
38852;BME280;24605;50.092;9.182;2023-01-28T12:50:57;98928.66;;;-0.21;91.20
38852;BME280;24605;50.092;9.182;2023-01-28T12:53:32;98924.38;;;0.13;91.45
38852;BME280;24605;50.092;9.182;2023-01-28T12:56:02;98930.53;;;0.44;89.75
38852;BME280;24605;50.092;9.182;2023-01-28T12:58:37;98928.78;;;0.11;87.77
38852;BME280;24605;50.092;9.182;2023-01-28T13:01:08;98900.31;;;-0.03;88.26
38852;BME280;24605;50.092;9.182;2023-01-28T13:03:40;98919.13;;;0.15;87.74
38852;BME280;24605;50.092;9.182;2023-01-28T13:06:13;98927.31;;;-0.28;87.92
38852;BME280;24605;50.092;9.182;2023-01-28T13:08:42;98900.16;;;0.00;88.58
38852;BME280;24605;50.092;9.182;2023-01-28T13:11:11;98916.94;;;0.41;86.78
38852;BME280;24605;50.092;9.182;2023-01-28T13:13:41;98919.91;;;0.67;85.54
38852;BME280;24605;50.092;9.182;2023-01-28T13:16:09;98896.59;;;0.84;83.60
38852;BME280;24605;50.092;9.182;2023-01-28T13:18:43;98929.59;;;0.95;82.79